Aviation Digital Data Service (ADDS)

Output produced by METARs form (2155 UTC 16 February 2019)
found at http://www.aviationweather.gov/metar/data/
 
Forecast for: ZYHB (HARBIN , CN)
Text: TAF ZYHB 161307Z 1618/1718 24004MPS 6000 NSC TX01/1706Z TNM14/21Z
Forecast period: 1800 UTC 16 February 2019 to 1800 UTC 17 February 2019
Forecast type: FROM: standard forecast or significant change
Winds: from the WSW (240 degrees) at 9 MPH (8 knots; 4.1 m/s)
Visibility: 4 miles (6 km)
Ceiling: unknown
Clouds: missing
Weather: no significant weather forecast for this period